sensor_id;sensor_type;location;lat;lon;timestamp;P1;durP1;ratioP1;P2;durP2;ratioP2
31716;SDS011;18301;51.076;17.046;2022-08-21T00:00:35;12.10;;;9.32;;
31716;SDS011;18301;51.076;17.046;2022-08-21T00:05:45;15.30;;;9.32;;
31716;SDS011;18301;51.076;17.046;2022-08-21T00:10:50;14.20;;;10.07;;
31716;SDS011;18301;51.076;17.046;2022-08-21T00:15:52;12.70;;;9.90;;
31716;SDS011;18301;51.076;17.046;2022-08-21T00:20:53;13.82;;;10.52;;
31716;SDS011;18301;51.076;17.046;2022-08-21T00:25:55;11.32;;;8.73;;
31716;SDS011;18301;51.076;17.046;2022-08-21T00:30:57;13.65;;;10.05;;
31716;SDS011;18301;51.076;17.046;2022-08-21T00:35:59;10.60;;;8.15;;
31716;SDS011;18301;51.076;17.046;2022-08-21T00:41:02;9.30;;;7.55;;
31716;SDS011;18301;51.076;17.046;2022-08-21T00:46:26;9.30;;;8.00;;
31716;SDS011;18301;51.076;17.046;2022-08-21T00:51:32;8.80;;;6.75;;
31716;SDS011;18301;51.076;17.046;2022-08-21T00:56:39;9.60;;;7.05;;
31716;SDS011;18301;51.076;17.046;2022-08-21T01:01:43;8.75;;;6.72;;
31716;SDS011;18301;51.076;17.046;2022-08-21T01:06:45;8.82;;;6.97;;
31716;SDS011;18301;51.076;17.046;2022-08-21T01:11:47;6.68;;;5.57;;
31716;SDS011;18301;51.076;17.046;2022-08-21T01:16:50;6.65;;;5.72;;
31716;SDS011;18301;51.076;17.046;2022-08-21T01:21:53;5.97;;;4.85;;
31716;SDS011;18301;51.076;17.046;2022-08-21T01:26:56;8.48;;;5.38;;
31716;SDS011;18301;51.076;17.046;2022-08-21T01:31:58;5.20;;;4.15;;
31716;SDS011;18301;51.076;17.046;2022-08-21T01:37:02;6.25;;;4.75;;
31716;SDS011;18301;51.076;17.046;2022-08-21T01:42:04;5.07;;;4.57;;
31716;SDS011;18301;51.076;17.046;2022-08-21T01:47:10;4.35;;;3.75;;
31716;SDS011;18301;51.076;17.046;2022-08-21T01:52:13;5.00;;;3.88;;
31716;SDS011;18301;51.076;17.046;2022-08-21T01:57:15;5.40;;;4.40;;
31716;SDS011;18301;51.076;17.046;2022-08-21T02:02:17;5.82;;;4.40;;
31716;SDS011;18301;51.076;17.046;2022-08-21T02:07:19;3.30;;;3.00;;
31716;SDS011;18301;51.076;17.046;2022-08-21T02:12:21;4.10;;;3.63;;
31716;SDS011;18301;51.076;17.046;2022-08-21T02:17:22;4.22;;;3.70;;
31716;SDS011;18301;51.076;17.046;2022-08-21T02:22:24;3.35;;;2.83;;
31716;SDS011;18301;51.076;17.046;2022-08-21T02:27:26;2.75;;;2.53;;
31716;SDS011;18301;51.076;17.046;2022-08-21T02:32:27;2.22;;;2.03;;
31716;SDS011;18301;51.076;17.046;2022-08-21T02:37:29;2.22;;;2.03;;
31716;SDS011;18301;51.076;17.046;2022-08-21T02:42:31;3.90;;;2.45;;
31716;SDS011;18301;51.076;17.046;2022-08-21T02:47:33;2.08;;;1.88;;
31716;SDS011;18301;51.076;17.046;2022-08-21T02:52:34;2.33;;;2.13;;
31716;SDS011;18301;51.076;17.046;2022-08-21T02:57:36;2.35;;;2.10;;
31716;SDS011;18301;51.076;17.046;2022-08-21T03:02:38;2.25;;;2.05;;
31716;SDS011;18301;51.076;17.046;2022-08-21T03:07:40;2.15;;;1.90;;
31716;SDS011;18301;51.076;17.046;2022-08-21T03:12:42;2.05;;;1.85;;
31716;SDS011;18301;51.076;17.046;2022-08-21T03:17:44;2.17;;;1.98;;
31716;SDS011;18301;51.076;17.046;2022-08-21T03:22:47;2.25;;;2.10;;
31716;SDS011;18301;51.076;17.046;2022-08-21T03:27:53;2.75;;;2.22;;
31716;SDS011;18301;51.076;17.046;2022-08-21T03:32:59;2.22;;;2.03;;
31716;SDS011;18301;51.076;17.046;2022-08-21T03:38:01;2.03;;;1.92;;
31716;SDS011;18301;51.076;17.046;2022-08-21T03:43:03;1.75;;;1.52;;
31716;SDS011;18301;51.076;17.046;2022-08-21T03:48:06;2.10;;;1.90;;
31716;SDS011;18301;51.076;17.046;2022-08-21T03:53:09;2.72;;;1.67;;
31716;SDS011;18301;51.076;17.046;2022-08-21T03:58:19;1.88;;;1.77;;
31716;SDS011;18301;51.076;17.046;2022-08-21T04:03:23;2.28;;;2.08;;
31716;SDS011;18301;51.076;17.046;2022-08-21T04:08:26;2.38;;;2.08;;
31716;SDS011;18301;51.076;17.046;2022-08-21T04:13:27;2.53;;;2.05;;
31716;SDS011;18301;51.076;17.046;2022-08-21T04:18:29;2.55;;;2.35;;
31716;SDS011;18301;51.076;17.046;2022-08-21T04:23:31;2.20;;;2.00;;
31716;SDS011;18301;51.076;17.046;2022-08-21T04:28:33;2.95;;;2.40;;
31716;SDS011;18301;51.076;17.046;2022-08-21T04:33:35;3.22;;;2.35;;
31716;SDS011;18301;51.076;17.046;2022-08-21T04:38:36;2.90;;;2.38;;
31716;SDS011;18301;51.076;17.046;2022-08-21T04:43:44;2.60;;;2.35;;
31716;SDS011;18301;51.076;17.046;2022-08-21T04:48:46;2.50;;;2.30;;
31716;SDS011;18301;51.076;17.046;2022-08-21T04:53:56;3.00;;;2.28;;
31716;SDS011;18301;51.076;17.046;2022-08-21T04:59:01;2.72;;;2.53;;
31716;SDS011;18301;51.076;17.046;2022-08-21T05:04:07;4.55;;;2.33;;
31716;SDS011;18301;51.076;17.046;2022-08-21T05:09:12;2.75;;;2.20;;
31716;SDS011;18301;51.076;17.046;2022-08-21T05:14:15;2.08;;;1.77;;
31716;SDS011;18301;51.076;17.046;2022-08-21T05:19:17;2.13;;;1.90;;
31716;SDS011;18301;51.076;17.046;2022-08-21T05:24:19;1.80;;;1.70;;
31716;SDS011;18301;51.076;17.046;2022-08-21T05:29:20;1.98;;;1.60;;
31716;SDS011;18301;51.076;17.046;2022-08-21T05:34:23;2.38;;;1.95;;
31716;SDS011;18301;51.076;17.046;2022-08-21T05:39:25;2.05;;;1.90;;
31716;SDS011;18301;51.076;17.046;2022-08-21T05:44:26;3.55;;;2.20;;
31716;SDS011;18301;51.076;17.046;2022-08-21T05:49:28;1.92;;;1.83;;
31716;SDS011;18301;51.076;17.046;2022-08-21T05:54:30;2.95;;;2.33;;
31716;SDS011;18301;51.076;17.046;2022-08-21T05:59:32;2.88;;;2.10;;
31716;SDS011;18301;51.076;17.046;2022-08-21T06:04:39;3.25;;;2.20;;
31716;SDS011;18301;51.076;17.046;2022-08-21T06:09:41;2.70;;;2.00;;
31716;SDS011;18301;51.076;17.046;2022-08-21T06:14:43;2.15;;;1.95;;
31716;SDS011;18301;51.076;17.046;2022-08-21T06:19:45;2.10;;;1.90;;
31716;SDS011;18301;51.076;17.046;2022-08-21T06:24:46;2.25;;;1.90;;
31716;SDS011;18301;51.076;17.046;2022-08-21T06:29:48;2.55;;;2.05;;
31716;SDS011;18301;51.076;17.046;2022-08-21T06:34:50;2.50;;;1.85;;
31716;SDS011;18301;51.076;17.046;2022-08-21T06:39:52;3.58;;;1.92;;
31716;SDS011;18301;51.076;17.046;2022-08-21T06:44:53;3.00;;;2.10;;
31716;SDS011;18301;51.076;17.046;2022-08-21T06:49:55;2.45;;;2.10;;
31716;SDS011;18301;51.076;17.046;2022-08-21T06:54:57;2.22;;;2.00;;
31716;SDS011;18301;51.076;17.046;2022-08-21T06:59:59;5.25;;;2.40;;
31716;SDS011;18301;51.076;17.046;2022-08-21T07:05:01;3.58;;;2.22;;
31716;SDS011;18301;51.076;17.046;2022-08-21T07:10:18;4.80;;;2.92;;
31716;SDS011;18301;51.076;17.046;2022-08-21T07:15:23;3.75;;;2.50;;
31716;SDS011;18301;51.076;17.046;2022-08-21T07:20:24;3.72;;;2.85;;
31716;SDS011;18301;51.076;17.046;2022-08-21T07:25:28;4.38;;;2.78;;
31716;SDS011;18301;51.076;17.046;2022-08-21T07:30:29;5.70;;;3.17;;
31716;SDS011;18301;51.076;17.046;2022-08-21T07:35:31;4.25;;;3.47;;
31716;SDS011;18301;51.076;17.046;2022-08-21T07:40:34;4.90;;;3.17;;
31716;SDS011;18301;51.076;17.046;2022-08-21T07:45:36;7.03;;;3.17;;
31716;SDS011;18301;51.076;17.046;2022-08-21T07:50:38;3.95;;;3.13;;
31716;SDS011;18301;51.076;17.046;2022-08-21T07:55:41;4.72;;;2.92;;
31716;SDS011;18301;51.076;17.046;2022-08-21T08:00:43;3.45;;;2.80;;
31716;SDS011;18301;51.076;17.046;2022-08-21T08:05:45;5.20;;;3.00;;
31716;SDS011;18301;51.076;17.046;2022-08-21T08:10:47;6.22;;;2.83;;
31716;SDS011;18301;51.076;17.046;2022-08-21T08:15:50;3.58;;;2.63;;
31716;SDS011;18301;51.076;17.046;2022-08-21T08:20:53;4.85;;;2.30;;
31716;SDS011;18301;51.076;17.046;2022-08-21T08:25:54;3.25;;;2.38;;
31716;SDS011;18301;51.076;17.046;2022-08-21T08:30:56;2.90;;;2.20;;
31716;SDS011;18301;51.076;17.046;2022-08-21T08:35:57;3.38;;;2.47;;
31716;SDS011;18301;51.076;17.046;2022-08-21T08:41:14;2.67;;;2.30;;
31716;SDS011;18301;51.076;17.046;2022-08-21T08:46:19;2.88;;;2.05;;
31716;SDS011;18301;51.076;17.046;2022-08-21T08:56:43;4.80;;;3.03;;
31716;SDS011;18301;51.076;17.046;2022-08-21T09:01:46;3.20;;;2.30;;
31716;SDS011;18301;51.076;17.046;2022-08-21T09:17:56;3.92;;;2.83;;
31716;SDS011;18301;51.076;17.046;2022-08-21T09:28:19;3.88;;;2.22;;
31716;SDS011;18301;51.076;17.046;2022-08-21T09:33:21;4.15;;;2.67;;
31716;SDS011;18301;51.076;17.046;2022-08-21T09:38:30;3.70;;;2.78;;
31716;SDS011;18301;51.076;17.046;2022-08-21T09:43:33;4.72;;;2.67;;
31716;SDS011;18301;51.076;17.046;2022-08-21T09:48:46;4.30;;;2.20;;
31716;SDS011;18301;51.076;17.046;2022-08-21T09:54:32;3.63;;;2.28;;
31716;SDS011;18301;51.076;17.046;2022-08-21T09:59:28;3.13;;;2.13;;
31716;SDS011;18301;51.076;17.046;2022-08-21T10:04:37;3.20;;;1.98;;
31716;SDS011;18301;51.076;17.046;2022-08-21T10:09:39;3.60;;;2.00;;
31716;SDS011;18301;51.076;17.046;2022-08-21T10:14:47;3.47;;;1.80;;
31716;SDS011;18301;51.076;17.046;2022-08-21T10:30:27;2.30;;;1.83;;
31716;SDS011;18301;51.076;17.046;2022-08-21T10:41:30;4.03;;;2.13;;
31716;SDS011;18301;51.076;17.046;2022-08-21T10:52:07;1.98;;;1.60;;
31716;SDS011;18301;51.076;17.046;2022-08-21T11:07:54;3.80;;;2.03;;
31716;SDS011;18301;51.076;17.046;2022-08-21T11:13:03;2.47;;;1.77;;
31716;SDS011;18301;51.076;17.046;2022-08-21T11:18:28;2.92;;;2.08;;
31716;SDS011;18301;51.076;17.046;2022-08-21T11:29:03;4.88;;;2.30;;
31716;SDS011;18301;51.076;17.046;2022-08-21T11:49:55;3.90;;;2.70;;
31716;SDS011;18301;51.076;17.046;2022-08-21T11:55:36;3.78;;;2.40;;
31716;SDS011;18301;51.076;17.046;2022-08-21T12:00:52;6.18;;;2.65;;
31716;SDS011;18301;51.076;17.046;2022-08-21T12:05:58;4.57;;;2.88;;
31716;SDS011;18301;51.076;17.046;2022-08-21T12:16:30;4.05;;;2.65;;
31716;SDS011;18301;51.076;17.046;2022-08-21T12:21:31;4.30;;;2.50;;
31716;SDS011;18301;51.076;17.046;2022-08-21T12:32:03;4.00;;;2.63;;
31716;SDS011;18301;51.076;17.046;2022-08-21T12:42:44;2.97;;;2.42;;
31716;SDS011;18301;51.076;17.046;2022-08-21T12:58:57;5.25;;;3.00;;
31716;SDS011;18301;51.076;17.046;2022-08-21T13:04:07;3.58;;;2.60;;
31716;SDS011;18301;51.076;17.046;2022-08-21T13:09:15;5.30;;;3.35;;
31716;SDS011;18301;51.076;17.046;2022-08-21T13:25:02;5.05;;;2.80;;
31716;SDS011;18301;51.076;17.046;2022-08-21T13:30:12;6.28;;;3.10;;
31716;SDS011;18301;51.076;17.046;2022-08-21T13:36:07;3.95;;;2.95;;
31716;SDS011;18301;51.076;17.046;2022-08-21T13:40:50;4.68;;;3.00;;
31716;SDS011;18301;51.076;17.046;2022-08-21T13:45:57;4.93;;;2.95;;
31716;SDS011;18301;51.076;17.046;2022-08-21T13:50:59;5.63;;;2.83;;
31716;SDS011;18301;51.076;17.046;2022-08-21T13:56:03;3.88;;;3.05;;
31716;SDS011;18301;51.076;17.046;2022-08-21T14:01:06;4.55;;;2.33;;
31716;SDS011;18301;51.076;17.046;2022-08-21T14:06:27;4.18;;;3.13;;
31716;SDS011;18301;51.076;17.046;2022-08-21T14:11:34;4.63;;;3.30;;
31716;SDS011;18301;51.076;17.046;2022-08-21T14:16:44;6.82;;;3.30;;
31716;SDS011;18301;51.076;17.046;2022-08-21T14:21:47;3.90;;;2.97;;
31716;SDS011;18301;51.076;17.046;2022-08-21T14:26:55;3.75;;;3.00;;
31716;SDS011;18301;51.076;17.046;2022-08-21T14:32:09;3.67;;;2.78;;
31716;SDS011;18301;51.076;17.046;2022-08-21T14:37:25;4.53;;;2.80;;
31716;SDS011;18301;51.076;17.046;2022-08-21T14:42:27;6.13;;;2.90;;
31716;SDS011;18301;51.076;17.046;2022-08-21T14:47:29;4.03;;;3.03;;
31716;SDS011;18301;51.076;17.046;2022-08-21T14:52:31;5.43;;;2.90;;
31716;SDS011;18301;51.076;17.046;2022-08-21T14:57:33;4.90;;;3.50;;
31716;SDS011;18301;51.076;17.046;2022-08-21T15:02:35;5.38;;;3.05;;
31716;SDS011;18301;51.076;17.046;2022-08-21T15:07:37;4.20;;;3.13;;
31716;SDS011;18301;51.076;17.046;2022-08-21T15:12:39;4.05;;;3.00;;
31716;SDS011;18301;51.076;17.046;2022-08-21T15:17:41;4.30;;;2.92;;
31716;SDS011;18301;51.076;17.046;2022-08-21T15:22:48;5.05;;;3.30;;
31716;SDS011;18301;51.076;17.046;2022-08-21T15:27:50;4.35;;;3.92;;
31716;SDS011;18301;51.076;17.046;2022-08-21T15:32:52;3.83;;;3.20;;
31716;SDS011;18301;51.076;17.046;2022-08-21T15:37:54;6.00;;;4.07;;
31716;SDS011;18301;51.076;17.046;2022-08-21T15:42:59;5.40;;;3.95;;
31716;SDS011;18301;51.076;17.046;2022-08-21T15:48:03;4.88;;;3.90;;
31716;SDS011;18301;51.076;17.046;2022-08-21T15:53:05;5.78;;;4.10;;
31716;SDS011;18301;51.076;17.046;2022-08-21T15:58:09;6.10;;;3.50;;
31716;SDS011;18301;51.076;17.046;2022-08-21T16:03:16;6.47;;;4.22;;
31716;SDS011;18301;51.076;17.046;2022-08-21T16:08:23;4.60;;;3.67;;
31716;SDS011;18301;51.076;17.046;2022-08-21T16:13:27;6.20;;;4.18;;
31716;SDS011;18301;51.076;17.046;2022-08-21T16:18:33;6.68;;;4.05;;
31716;SDS011;18301;51.076;17.046;2022-08-21T16:23:35;6.32;;;3.80;;
31716;SDS011;18301;51.076;17.046;2022-08-21T16:28:39;4.32;;;3.85;;
31716;SDS011;18301;51.076;17.046;2022-08-21T16:33:44;3.50;;;3.08;;
31716;SDS011;18301;51.076;17.046;2022-08-21T16:38:51;4.00;;;3.22;;
31716;SDS011;18301;51.076;17.046;2022-08-21T16:43:54;3.40;;;3.10;;
31716;SDS011;18301;51.076;17.046;2022-08-21T16:48:56;6.03;;;3.35;;
31716;SDS011;18301;51.076;17.046;2022-08-21T16:53:58;3.40;;;2.92;;
31716;SDS011;18301;51.076;17.046;2022-08-21T16:59:00;4.05;;;2.80;;
31716;SDS011;18301;51.076;17.046;2022-08-21T17:04:02;5.05;;;2.83;;
31716;SDS011;18301;51.076;17.046;2022-08-21T17:09:04;3.47;;;2.60;;
31716;SDS011;18301;51.076;17.046;2022-08-21T17:14:12;3.03;;;2.55;;
31716;SDS011;18301;51.076;17.046;2022-08-21T17:19:23;4.30;;;2.28;;
31716;SDS011;18301;51.076;17.046;2022-08-21T17:24:24;3.72;;;2.13;;
31716;SDS011;18301;51.076;17.046;2022-08-21T17:29:27;3.47;;;2.10;;
31716;SDS011;18301;51.076;17.046;2022-08-21T17:34:31;3.22;;;1.83;;
31716;SDS011;18301;51.076;17.046;2022-08-21T17:39:33;2.58;;;1.88;;
31716;SDS011;18301;51.076;17.046;2022-08-21T17:44:37;2.30;;;2.00;;
31716;SDS011;18301;51.076;17.046;2022-08-21T17:49:40;4.82;;;2.20;;
31716;SDS011;18301;51.076;17.046;2022-08-21T17:54:41;3.17;;;2.13;;
31716;SDS011;18301;51.076;17.046;2022-08-21T17:59:43;2.33;;;2.08;;
31716;SDS011;18301;51.076;17.046;2022-08-21T18:04:45;2.78;;;1.80;;
31716;SDS011;18301;51.076;17.046;2022-08-21T18:09:50;2.55;;;1.98;;
31716;SDS011;18301;51.076;17.046;2022-08-21T18:14:54;4.88;;;2.10;;
31716;SDS011;18301;51.076;17.046;2022-08-21T18:19:55;3.75;;;2.10;;
31716;SDS011;18301;51.076;17.046;2022-08-21T18:24:59;2.45;;;1.98;;
31716;SDS011;18301;51.076;17.046;2022-08-21T18:30:01;2.15;;;1.73;;
31716;SDS011;18301;51.076;17.046;2022-08-21T18:35:04;4.53;;;2.13;;
31716;SDS011;18301;51.076;17.046;2022-08-21T18:40:09;2.83;;;1.95;;
31716;SDS011;18301;51.076;17.046;2022-08-21T18:45:12;3.15;;;2.20;;
31716;SDS011;18301;51.076;17.046;2022-08-21T18:50:17;3.17;;;2.08;;
31716;SDS011;18301;51.076;17.046;2022-08-21T18:55:20;2.85;;;2.08;;
31716;SDS011;18301;51.076;17.046;2022-08-21T19:00:26;3.63;;;2.40;;
31716;SDS011;18301;51.076;17.046;2022-08-21T19:05:30;3.75;;;2.20;;
31716;SDS011;18301;51.076;17.046;2022-08-21T19:10:32;3.53;;;2.20;;
31716;SDS011;18301;51.076;17.046;2022-08-21T19:15:34;4.43;;;2.45;;
31716;SDS011;18301;51.076;17.046;2022-08-21T19:20:39;4.80;;;2.20;;
31716;SDS011;18301;51.076;17.046;2022-08-21T19:25:43;3.42;;;2.22;;
31716;SDS011;18301;51.076;17.046;2022-08-21T19:31:03;3.15;;;2.20;;
31716;SDS011;18301;51.076;17.046;2022-08-21T19:36:19;3.10;;;2.30;;
31716;SDS011;18301;51.076;17.046;2022-08-21T19:41:23;2.67;;;2.30;;
31716;SDS011;18301;51.076;17.046;2022-08-21T19:46:29;4.53;;;2.72;;
31716;SDS011;18301;51.076;17.046;2022-08-21T19:51:42;3.45;;;2.35;;
31716;SDS011;18301;51.076;17.046;2022-08-21T19:56:45;2.85;;;2.15;;
31716;SDS011;18301;51.076;17.046;2022-08-21T20:01:47;3.22;;;2.50;;
31716;SDS011;18301;51.076;17.046;2022-08-21T20:06:49;3.60;;;2.75;;
31716;SDS011;18301;51.076;17.046;2022-08-21T20:11:53;3.75;;;2.53;;
31716;SDS011;18301;51.076;17.046;2022-08-21T20:17:16;3.05;;;2.40;;
31716;SDS011;18301;51.076;17.046;2022-08-21T20:22:19;5.18;;;2.72;;
31716;SDS011;18301;51.076;17.046;2022-08-21T20:27:25;3.72;;;2.50;;
31716;SDS011;18301;51.076;17.046;2022-08-21T20:32:27;4.68;;;2.63;;
31716;SDS011;18301;51.076;17.046;2022-08-21T20:37:32;3.95;;;2.97;;
31716;SDS011;18301;51.076;17.046;2022-08-21T20:42:38;4.50;;;2.83;;
31716;SDS011;18301;51.076;17.046;2022-08-21T20:47:44;3.20;;;2.45;;
31716;SDS011;18301;51.076;17.046;2022-08-21T20:52:54;4.30;;;3.00;;
31716;SDS011;18301;51.076;17.046;2022-08-21T20:58:06;4.88;;;3.22;;
31716;SDS011;18301;51.076;17.046;2022-08-21T21:03:15;4.03;;;2.95;;
31716;SDS011;18301;51.076;17.046;2022-08-21T21:08:38;4.18;;;3.00;;
31716;SDS011;18301;51.076;17.046;2022-08-21T21:19:05;4.63;;;2.67;;
31716;SDS011;18301;51.076;17.046;2022-08-21T21:35:27;5.38;;;3.20;;
31716;SDS011;18301;51.076;17.046;2022-08-21T22:08:11;5.10;;;2.93;;
31716;SDS011;18301;51.076;17.046;2022-08-21T22:13:31;5.80;;;3.28;;
31716;SDS011;18301;51.076;17.046;2022-08-21T22:18:43;6.35;;;2.75;;
31716;SDS011;18301;51.076;17.046;2022-08-21T22:24:16;2.67;;;2.22;;
31716;SDS011;18301;51.076;17.046;2022-08-21T22:29:22;4.88;;;3.00;;
31716;SDS011;18301;51.076;17.046;2022-08-21T22:34:25;4.70;;;3.13;;
31716;SDS011;18301;51.076;17.046;2022-08-21T22:39:30;5.38;;;2.95;;
31716;SDS011;18301;51.076;17.046;2022-08-21T22:44:46;4.70;;;2.85;;
31716;SDS011;18301;51.076;17.046;2022-08-21T22:49:57;3.90;;;3.00;;
31716;SDS011;18301;51.076;17.046;2022-08-21T22:55:21;4.32;;;2.63;;
31716;SDS011;18301;51.076;17.046;2022-08-21T23:00:56;4.25;;;3.05;;
31716;SDS011;18301;51.076;17.046;2022-08-21T23:06:03;5.40;;;3.03;;
31716;SDS011;18301;51.076;17.046;2022-08-21T23:11:25;3.33;;;2.80;;
31716;SDS011;18301;51.076;17.046;2022-08-21T23:16:54;4.55;;;2.70;;
31716;SDS011;18301;51.076;17.046;2022-08-21T23:38:13;4.07;;;3.00;;
31716;SDS011;18301;51.076;17.046;2022-08-21T23:43:43;3.90;;;2.95;;
